Time;durP1;ratioP1;P1;durP2;ratioP2;P2;SDS_P1;SDS_P2;PMS_P1;PMS_P2;Temp;Humidity;BMP_temperature;BMP_pressure;BME280_temperature;BME280_humidity;BME280_pressure;Samples;Min_cycle;Max_cycle;Signal;HPM_P1;HPM_P2
2022/07/04 00:02:23;;;;;;;;;;;14.70;99.90;;;;;;5089417;28;19925;-77
2022/07/04 00:04:49;;;;;;;;;;;14.60;99.90;;;;;;5089593;28;19924;-78
2022/07/04 00:07:14;;;;;;;;;;;14.60;99.90;;;;;;5071114;28;20243;-78
2022/07/04 00:09:40;;;;;;;;;;;14.60;99.90;;;;;;5089125;28;20421;-77
2022/07/04 00:12:05;;;;;;;;;;;14.60;99.90;;;;;;5089527;28;19931;-78
2022/07/04 00:14:31;;;;;;;;;;;14.60;99.90;;;;;;5071654;28;19924;-77
2022/07/04 00:16:56;;;;;;;;;;;14.60;99.90;;;;;;5089211;28;20324;-78
2022/07/04 00:19:22;;;;;;;;;;;14.60;99.90;;;;;;5089499;28;20748;-78
2022/07/04 00:21:47;;;;;;;;;;;14.60;99.90;;;;;;5089034;28;20470;-78
2022/07/04 00:24:13;;;;;;;;;;;14.60;99.90;;;;;;5089265;28;19928;-78
2022/07/04 00:26:39;;;;;;;;;;;14.60;99.90;;;;;;5088979;28;19924;-78
2022/07/04 00:29:04;;;;;;;;;;;14.60;99.90;;;;;;5088796;28;20306;-78
2022/07/04 00:31:30;;;;;;;;;;;14.60;99.90;;;;;;5089002;28;19930;-77
2022/07/04 00:33:55;;;;;;;;;;;14.60;99.90;;;;;;5089151;28;19924;-78
2022/07/04 00:36:21;;;;;;;;;;;14.60;99.90;;;;;;5088673;28;20467;-78
2022/07/04 00:38:46;;;;;;;;;;;14.50;99.90;;;;;;5089373;28;19924;-78
2022/07/04 00:41:12;;;;;;;;;;;14.50;99.90;;;;;;5088536;28;19928;-78
2022/07/04 00:43:38;;;;;;;;;;;14.50;99.90;;;;;;5071001;28;19925;-78
2022/07/04 00:46:05;;;;;;;;;;;14.50;99.90;;;;;;5089072;28;19935;-77
2022/07/04 00:48:31;;;;;;;;;;;14.50;99.90;;;;;;5089061;28;19931;-78
2022/07/04 00:50:57;;;;;;;;;;;14.40;99.90;;;;;;5076481;28;20310;-78
2022/07/04 00:53:23;;;;;;;;;;;14.40;99.90;;;;;;5092947;28;20020;-78
2022/07/04 00:55:52;;;;;;;;;;;14.40;99.90;;;;;;5092374;28;19925;-78
2022/07/04 00:58:22;;;;;;;;;;;14.40;99.90;;;;;;5092517;28;19924;-78
2022/07/04 01:00:48;;;;;;;;;;;14.40;99.90;;;;;;5092199;28;19936;-77
2022/07/04 01:03:13;;;;;;;;;;;14.40;99.90;;;;;;5092304;28;19986;-78
2022/07/04 01:05:39;;;;;;;;;;;14.30;99.90;;;;;;5092107;28;19983;-78
2022/07/04 01:08:05;;;;;;;;;;;14.30;99.90;;;;;;5092354;28;20305;-78
2022/07/04 01:10:31;;;;;;;;;;;14.30;99.90;;;;;;5092296;28;19931;-78
2022/07/04 01:12:56;;;;;;;;;;;14.30;99.90;;;;;;5092291;28;19924;-78
2022/07/04 01:15:22;;;;;;;;;;;14.30;99.90;;;;;;5090567;28;20018;-77
2022/07/04 01:17:48;;;;;;;;;;;14.30;99.90;;;;;;5091378;28;20306;-78
2022/07/04 01:20:14;;;;;;;;;;;14.20;99.90;;;;;;5091399;28;19931;-78
2022/07/04 01:22:41;;;;;;;;;;;14.20;99.90;;;;;;5090990;28;19931;-78
2022/07/04 01:25:07;;;;;;;;;;;14.20;99.90;;;;;;5090577;28;19935;-77
2022/07/04 01:27:32;;;;;;;;;;;14.20;99.90;;;;;;5090955;28;20421;-78
2022/07/04 01:29:58;;;;;;;;;;;14.20;99.90;;;;;;5091199;28;19924;-77
2022/07/04 01:32:24;;;;;;;;;;;14.10;99.90;;;;;;5091543;28;20022;-78
2022/07/04 01:34:49;;;;;;;;;;;14.10;99.90;;;;;;5091391;28;19963;-78
2022/07/04 01:37:15;;;;;;;;;;;14.10;99.90;;;;;;5091581;28;19924;-78
2022/07/04 01:39:40;;;;;;;;;;;14.10;99.90;;;;;;5091003;28;19969;-78
2022/07/04 01:42:06;;;;;;;;;;;14.10;99.90;;;;;;5091584;28;19993;-78
2022/07/04 01:44:32;;;;;;;;;;;14.10;99.90;;;;;;5091429;28;19924;-77
2022/07/04 01:46:57;;;;;;;;;;;14.00;99.90;;;;;;5091330;28;19931;-77
2022/07/04 01:49:23;;;;;;;;;;;14.00;99.90;;;;;;5091280;28;19972;-77
2022/07/04 01:51:49;;;;;;;;;;;14.00;99.90;;;;;;5091484;28;19928;-77
2022/07/04 01:54:15;;;;;;;;;;;14.00;99.90;;;;;;5091142;28;19932;-77
2022/07/04 01:56:41;;;;;;;;;;;14.00;99.90;;;;;;5091522;28;20019;-77
2022/07/04 01:59:07;;;;;;;;;;;14.00;99.90;;;;;;5091169;28;20014;-77
2022/07/04 02:01:33;;;;;;;;;;;14.00;99.90;;;;;;5090988;28;19928;-77
2022/07/04 02:04:00;;;;;;;;;;;13.90;99.90;;;;;;5091225;28;19968;-77
2022/07/04 02:06:25;;;;;;;;;;;13.90;99.90;;;;;;5091177;28;20374;-77
2022/07/04 02:14:21;;;;;;;;;;;13.90;99.90;;;;;;5090621;28;19924;-77
2022/07/04 02:16:46;;;;;;;;;;;13.80;99.90;;;;;;5090954;28;19970;-78
2022/07/04 02:19:12;;;;;;;;;;;13.80;99.90;;;;;;5091140;28;19928;-77
2022/07/04 02:21:37;;;;;;;;;;;13.80;99.90;;;;;;5090804;28;19931;-77
2022/07/04 02:24:03;;;;;;;;;;;13.80;99.90;;;;;;5090549;28;20034;-77
2022/07/04 02:26:28;;;;;;;;;;;13.80;99.90;;;;;;5087890;28;19924;-77
2022/07/04 02:28:54;;;;;;;;;;;13.80;99.90;;;;;;5090931;28;19928;-77
2022/07/04 02:31:20;;;;;;;;;;;13.70;99.90;;;;;;5090811;28;19977;-77
2022/07/04 02:33:45;;;;;;;;;;;13.70;99.90;;;;;;5090686;28;19969;-77
2022/07/04 02:36:11;;;;;;;;;;;13.70;99.90;;;;;;5090457;28;19970;-77
2022/07/04 02:38:36;;;;;;;;;;;13.70;99.90;;;;;;5088431;28;19970;-77
2022/07/04 02:41:02;;;;;;;;;;;13.70;99.90;;;;;;5081841;28;19931;-77
2022/07/04 02:43:27;;;;;;;;;;;13.60;99.90;;;;;;5090287;28;20044;-77
2022/07/04 02:45:53;;;;;;;;;;;13.60;99.90;;;;;;5090198;28;20435;-77
2022/07/04 02:48:18;;;;;;;;;;;13.60;99.90;;;;;;5071976;28;19970;-78
2022/07/04 02:50:44;;;;;;;;;;;13.60;99.90;;;;;;5090463;28;19928;-77
2022/07/04 02:53:09;;;;;;;;;;;13.60;99.90;;;;;;5090002;28;20314;-77
2022/07/04 02:55:35;;;;;;;;;;;13.60;99.90;;;;;;5072068;28;19932;-77
2022/07/04 02:58:00;;;;;;;;;;;13.60;99.90;;;;;;5089424;28;19924;-78
2022/07/04 03:00:26;;;;;;;;;;;13.50;99.90;;;;;;5088310;28;19931;-78
2022/07/04 03:02:53;;;;;;;;;;;13.50;99.90;;;;;;5090202;28;19983;-78
2022/07/04 03:05:18;;;;;;;;;;;13.50;99.90;;;;;;5071960;28;19970;-77
2022/07/04 03:07:44;;;;;;;;;;;13.50;99.90;;;;;;5090062;28;19972;-77
2022/07/04 03:10:09;;;;;;;;;;;13.50;99.90;;;;;;5089785;28;20028;-77
2022/07/04 03:12:35;;;;;;;;;;;13.40;99.90;;;;;;5089789;28;20306;-77
2022/07/04 03:15:00;;;;;;;;;;;13.40;99.90;;;;;;5089198;28;19924;-77
2022/07/04 03:17:26;;;;;;;;;;;13.40;99.90;;;;;;5089921;28;20026;-77
2022/07/04 03:19:51;;;;;;;;;;;13.40;99.90;;;;;;5089907;28;20290;-77
2022/07/04 03:22:17;;;;;;;;;;;13.40;99.90;;;;;;5090023;28;19957;-77
2022/07/04 03:24:42;;;;;;;;;;;13.30;99.90;;;;;;5089155;28;20007;-78
2022/07/04 03:27:08;;;;;;;;;;;13.40;99.90;;;;;;5089527;28;19947;-77
2022/07/04 03:29:33;;;;;;;;;;;13.40;99.90;;;;;;5089810;28;19930;-78
2022/07/04 03:31:59;;;;;;;;;;;13.30;99.90;;;;;;5089820;28;19936;-77
2022/07/04 03:34:25;;;;;;;;;;;13.30;99.90;;;;;;5089879;28;20366;-77
2022/07/04 03:36:50;;;;;;;;;;;13.30;99.90;;;;;;5089709;28;19924;-77
2022/07/04 03:39:16;;;;;;;;;;;13.30;99.90;;;;;;5089298;28;19924;-77
2022/07/04 03:41:41;;;;;;;;;;;13.30;99.90;;;;;;5089830;28;19924;-77
2022/07/04 03:44:07;;;;;;;;;;;13.30;99.90;;;;;;5089675;28;19932;-77
2022/07/04 03:46:32;;;;;;;;;;;13.40;99.90;;;;;;5087524;28;20291;-77
2022/07/04 03:48:59;;;;;;;;;;;13.40;99.90;;;;;;5089487;28;19927;-78
2022/07/04 03:51:24;;;;;;;;;;;13.40;99.90;;;;;;5089458;28;19924;-77
2022/07/04 03:53:50;;;;;;;;;;;13.40;99.90;;;;;;5089476;28;19950;-77
2022/07/04 03:56:16;;;;;;;;;;;13.40;99.90;;;;;;5089935;28;20302;-77
2022/07/04 03:58:48;;;;;;;;;;;13.40;99.90;;;;;;5089490;28;19924;-77
2022/07/04 04:01:23;;;;;;;;;;;13.50;99.90;;;;;;5071290;28;20445;-77
2022/07/04 04:06:33;;;;;;;;;;;13.60;99.90;;;;;;5089266;28;20279;-77
2022/07/04 04:08:58;;;;;;;;;;;13.60;99.90;;;;;;5089330;28;19935;-77
2022/07/04 04:11:24;;;;;;;;;;;13.60;99.90;;;;;;5089322;28;19924;-77
2022/07/04 04:13:49;;;;;;;;;;;13.70;99.90;;;;;;5088893;28;19975;-77
2022/07/04 04:16:15;;;;;;;;;;;13.70;99.90;;;;;;5089011;28;20485;-77
2022/07/04 04:18:40;;;;;;;;;;;13.80;99.90;;;;;;5088941;28;19931;-77
2022/07/04 04:21:06;;;;;;;;;;;13.80;99.90;;;;;;5089191;28;19924;-77
2022/07/04 04:23:32;;;;;;;;;;;13.90;99.90;;;;;;5089597;28;20378;-77
2022/07/04 04:25:57;;;;;;;;;;;13.90;99.90;;;;;;5071373;28;19928;-77
2022/07/04 04:28:23;;;;;;;;;;;13.90;99.90;;;;;;5093359;28;19928;-77
2022/07/04 04:30:49;;;;;;;;;;;14.00;99.90;;;;;;5092522;28;20329;-77
2022/07/04 04:33:15;;;;;;;;;;;14.10;99.90;;;;;;5074641;28;19930;-77
2022/07/04 04:35:40;;;;;;;;;;;14.10;99.90;;;;;;5092678;28;19924;-77
2022/07/04 04:38:06;;;;;;;;;;;14.20;99.90;;;;;;5093023;28;19940;-75
2022/07/04 04:40:31;;;;;;;;;;;14.20;99.90;;;;;;5092705;28;19985;-77
2022/07/04 04:42:57;;;;;;;;;;;14.30;99.90;;;;;;5092652;28;19924;-77
2022/07/04 04:45:22;;;;;;;;;;;14.30;99.90;;;;;;5092510;28;20375;-77
2022/07/04 04:47:48;;;;;;;;;;;14.40;99.90;;;;;;5074504;28;20470;-77
2022/07/04 04:50:14;;;;;;;;;;;14.50;99.90;;;;;;5092618;28;20568;-77
2022/07/04 04:52:42;;;;;;;;;;;14.50;99.90;;;;;;5092849;28;19924;-77
2022/07/04 04:55:08;;;;;;;;;;;14.60;99.90;;;;;;5091720;28;20345;-77
2022/07/04 04:57:34;;;;;;;;;;;14.60;99.90;;;;;;5065831;28;19924;-77
2022/07/04 04:59:59;;;;;;;;;;;14.60;99.90;;;;;;5087536;28;20286;-77
2022/07/04 05:02:26;;;;;;;;;;;14.70;99.90;;;;;;5093043;28;19924;-77
2022/07/04 05:04:52;;;;;;;;;;;14.70;99.90;;;;;;5092128;28;19924;-77
2022/07/04 05:07:17;;;;;;;;;;;14.80;99.90;;;;;;5090982;28;20491;-77
2022/07/04 05:09:43;;;;;;;;;;;14.80;99.90;;;;;;5091614;28;20297;-77
2022/07/04 05:12:09;;;;;;;;;;;14.90;99.90;;;;;;5091980;28;20362;-77
2022/07/04 05:14:34;;;;;;;;;;;14.90;99.90;;;;;;5092311;28;20445;-77
2022/07/04 05:17:00;;;;;;;;;;;14.90;99.90;;;;;;5091705;28;19928;-77
2022/07/04 05:19:26;;;;;;;;;;;15.00;99.90;;;;;;5091968;28;19928;-77
2022/07/04 05:21:52;;;;;;;;;;;15.00;99.90;;;;;;5092329;28;19924;-77
2022/07/04 05:24:17;;;;;;;;;;;15.00;99.90;;;;;;5091640;28;19978;-77
2022/07/04 05:26:43;;;;;;;;;;;15.10;99.90;;;;;;5092064;28;19924;-77
2022/07/04 05:29:08;;;;;;;;;;;15.20;99.90;;;;;;5091578;28;19963;-77
2022/07/04 05:31:34;;;;;;;;;;;15.20;99.90;;;;;;5091690;28;19924;-77
2022/07/04 05:33:59;;;;;;;;;;;15.30;99.90;;;;;;5091774;28;19931;-77
2022/07/04 05:36:25;;;;;;;;;;;15.30;99.90;;;;;;5091407;28;19924;-77
2022/07/04 05:38:51;;;;;;;;;;;15.30;99.90;;;;;;5091596;28;19931;-76
2022/07/04 05:41:17;;;;;;;;;;;15.30;99.90;;;;;;5092133;28;19975;-76
2022/07/04 05:43:42;;;;;;;;;;;15.30;99.90;;;;;;5086823;28;19978;-76
2022/07/04 05:46:08;;;;;;;;;;;15.40;99.90;;;;;;5078276;28;19950;-76
2022/07/04 05:48:34;;;;;;;;;;;15.50;99.90;;;;;;5072825;28;19924;-77
2022/07/04 05:50:59;;;;;;;;;;;15.70;99.90;;;;;;5091024;28;19924;-77
2022/07/04 05:53:25;;;;;;;;;;;15.80;99.90;;;;;;5091423;28;20286;-77
2022/07/04 05:55:50;;;;;;;;;;;16.00;99.90;;;;;;5091351;28;20298;-76
2022/07/04 05:58:16;;;;;;;;;;;16.00;99.90;;;;;;5091341;28;20023;-76
2022/07/04 06:00:42;;;;;;;;;;;16.10;99.90;;;;;;5091227;28;20013;-76
2022/07/04 06:03:08;;;;;;;;;;;16.20;99.90;;;;;;5091052;28;19924;-76
2022/07/04 06:05:33;;;;;;;;;;;16.20;99.90;;;;;;5091205;28;20011;-77
2022/07/04 06:07:59;;;;;;;;;;;16.20;99.90;;;;;;5090861;28;20053;-76
2022/07/04 06:10:25;;;;;;;;;;;16.30;99.90;;;;;;5090524;28;20053;-76
2022/07/04 06:12:50;;;;;;;;;;;16.30;99.90;;;;;;5090860;28;19925;-76
2022/07/04 06:15:16;;;;;;;;;;;16.40;99.90;;;;;;5091011;28;19924;-77
2022/07/04 06:17:41;;;;;;;;;;;16.40;99.90;;;;;;5090788;28;19924;-77
2022/07/04 06:20:07;;;;;;;;;;;16.50;99.90;;;;;;5091166;28;19924;-77
2022/07/04 06:22:43;;;;;;;;;;;16.60;99.90;;;;;;5059158;28;20011;-77
2022/07/04 06:25:16;;;;;;;;;;;16.80;99.90;;;;;;5090732;28;19931;-76
2022/07/04 06:27:42;;;;;;;;;;;16.90;99.90;;;;;;5078263;28;19924;-76
2022/07/04 06:30:08;;;;;;;;;;;17.00;99.90;;;;;;5090859;28;19935;-76
2022/07/04 06:32:47;;;;;;;;;;;17.00;99.90;;;;;;5090653;28;20693;-77
2022/07/04 06:37:57;;;;;;;;;;;17.00;99.90;;;;;;5090213;28;19928;-76
2022/07/04 06:40:22;;;;;;;;;;;17.00;99.90;;;;;;5090696;28;19924;-77
2022/07/04 06:42:49;;;;;;;;;;;17.10;99.90;;;;;;5090726;28;19994;-77
2022/07/04 06:45:14;;;;;;;;;;;17.10;99.90;;;;;;5090590;28;19977;-77
2022/07/04 06:47:40;;;;;;;;;;;17.20;99.90;;;;;;5090022;28;20302;-77
2022/07/04 06:50:06;;;;;;;;;;;17.20;99.90;;;;;;5089822;28;19931;-76
2022/07/04 06:52:31;;;;;;;;;;;17.30;99.90;;;;;;5060087;28;19924;-77
2022/07/04 06:54:57;;;;;;;;;;;17.30;99.90;;;;;;5088573;28;19985;-77
2022/07/04 06:57:22;;;;;;;;;;;17.40;99.90;;;;;;5090235;28;19977;-76
2022/07/04 06:59:48;;;;;;;;;;;17.40;99.90;;;;;;5089845;28;19924;-77
2022/07/04 07:02:13;;;;;;;;;;;17.50;99.90;;;;;;5090218;28;20383;-77
2022/07/04 07:04:40;;;;;;;;;;;17.50;99.90;;;;;;5089623;28;19930;-77
2022/07/04 07:07:06;;;;;;;;;;;17.50;99.90;;;;;;5089936;28;19924;-76
2022/07/04 07:09:31;;;;;;;;;;;17.60;99.90;;;;;;5089795;28;19928;-77
2022/07/04 07:11:57;;;;;;;;;;;17.60;99.90;;;;;;5090298;28;19931;-77
2022/07/04 07:14:22;;;;;;;;;;;17.70;99.90;;;;;;5058471;28;19924;-77
2022/07/04 07:16:48;;;;;;;;;;;17.70;99.90;;;;;;5085827;28;20419;-77
2022/07/04 07:19:13;;;;;;;;;;;17.80;99.90;;;;;;5079756;28;19932;-77
2022/07/04 07:21:39;;;;;;;;;;;17.80;99.90;;;;;;5073880;28;19931;-77
2022/07/04 07:24:05;;;;;;;;;;;17.90;99.90;;;;;;5089468;28;19935;-77
2022/07/04 07:26:30;;;;;;;;;;;18.00;99.90;;;;;;5089604;28;19978;-76
2022/07/04 07:28:56;;;;;;;;;;;18.10;99.90;;;;;;5089597;28;19924;-77
2022/07/04 07:31:21;;;;;;;;;;;18.20;99.90;;;;;;5089480;28;20005;-77
2022/07/04 07:33:47;;;;;;;;;;;18.30;99.90;;;;;;5082497;28;19925;-77
2022/07/04 07:36:12;;;;;;;;;;;18.40;99.90;;;;;;5083990;28;20802;-77
2022/07/04 07:38:38;;;;;;;;;;;18.50;99.90;;;;;;5089715;28;20339;-77
2022/07/04 07:41:07;;;;;;;;;;;18.40;99.90;;;;;;5089773;28;19924;-77
2022/07/04 07:43:32;;;;;;;;;;;18.50;99.90;;;;;;5089511;28;19931;-77
2022/07/04 07:45:58;;;;;;;;;;;18.70;99.90;;;;;;5089103;28;19928;-77
2022/07/04 07:48:23;;;;;;;;;;;18.80;99.90;;;;;;5089744;28;20370;-77
2022/07/04 07:50:49;;;;;;;;;;;18.80;99.90;;;;;;5089295;28;19928;-78
2022/07/04 07:53:15;;;;;;;;;;;18.90;99.90;;;;;;5089390;28;19924;-77
2022/07/04 07:55:41;;;;;;;;;;;18.90;99.90;;;;;;5089503;28;19924;-76
2022/07/04 07:58:07;;;;;;;;;;;19.00;99.90;;;;;;5075898;28;19935;-77
2022/07/04 08:00:32;;;;;;;;;;;19.10;99.90;;;;;;5091561;28;20314;-77
2022/07/04 08:05:42;;;;;;;;;;;19.00;99.90;;;;;;5093560;28;20388;-76
2022/07/04 08:08:09;;;;;;;;;;;18.90;99.90;;;;;;5092938;28;20022;-77
2022/07/04 08:10:36;;;;;;;;;;;18.90;99.90;;;;;;5093430;28;20441;-77
2022/07/04 08:13:02;;;;;;;;;;;18.80;99.90;;;;;;5093582;28;20045;-77
2022/07/04 08:15:28;;;;;;;;;;;18.80;99.90;;;;;;5092881;28;20463;-76
2022/07/04 08:17:53;;;;;;;;;;;18.80;99.90;;;;;;5093083;28;19932;-76
2022/07/04 08:20:19;;;;;;;;;;;18.80;99.90;;;;;;5093612;28;20013;-77
2022/07/04 08:22:44;;;;;;;;;;;18.80;99.90;;;;;;5093216;28;20404;-77
2022/07/04 08:25:10;;;;;;;;;;;18.80;99.90;;;;;;5093085;28;19935;-77
2022/07/04 08:27:36;;;;;;;;;;;18.70;99.90;;;;;;5092947;28;20010;-77
2022/07/04 08:30:01;;;;;;;;;;;18.60;99.90;;;;;;5093502;28;19967;-77
2022/07/04 08:32:27;;;;;;;;;;;18.50;99.90;;;;;;5092626;28;20010;-77
2022/07/04 08:34:54;;;;;;;;;;;18.40;99.90;;;;;;5092851;28;20378;-76
2022/07/04 08:37:20;;;;;;;;;;;18.30;99.90;;;;;;5092588;28;19933;-77
2022/07/04 08:39:45;;;;;;;;;;;18.20;99.90;;;;;;5092925;28;20389;-77
2022/07/04 08:42:15;;;;;;;;;;;18.20;99.90;;;;;;5093132;28;20294;-77
2022/07/04 08:44:45;;;;;;;;;;;18.10;99.90;;;;;;5093154;28;19946;-77
2022/07/04 08:47:16;;;;;;;;;;;18.00;99.90;;;;;;5092754;28;19931;-78
2022/07/04 08:49:43;;;;;;;;;;;17.80;99.90;;;;;;5092692;28;20332;-77
2022/07/04 08:52:10;;;;;;;;;;;17.80;99.90;;;;;;5092379;28;20010;-76
2022/07/04 09:00:05;;;;;;;;;;;17.90;99.90;;;;;;5091954;28;20394;-77
2022/07/04 09:02:32;;;;;;;;;;;18.10;99.90;;;;;;5092957;28;20011;-77
2022/07/04 09:04:58;;;;;;;;;;;18.20;99.90;;;;;;5092523;28;19932;-77
2022/07/04 09:07:24;;;;;;;;;;;18.50;99.90;;;;;;5091992;28;19924;-77
2022/07/04 09:09:50;;;;;;;;;;;18.80;99.90;;;;;;5091518;28;19935;-77
2022/07/04 09:12:16;;;;;;;;;;;19.00;99.90;;;;;;5091360;28;19931;-78
2022/07/04 09:14:41;;;;;;;;;;;19.30;99.90;;;;;;5092202;28;19932;-77
2022/07/04 09:17:07;;;;;;;;;;;19.50;99.90;;;;;;5091890;28;19924;-77
2022/07/04 09:19:33;;;;;;;;;;;19.60;99.90;;;;;;5092068;28;19978;-76
2022/07/04 09:22:02;;;;;;;;;;;19.60;99.90;;;;;;5092332;28;19934;-77
2022/07/04 09:24:46;;;;;;;;;;;19.60;99.90;;;;;;5088694;28;19933;-77
2022/07/04 09:27:12;;;;;;;;;;;19.50;99.90;;;;;;5084293;28;19924;-77
2022/07/04 09:29:51;;;;;;;;;;;19.50;99.90;;;;;;5092072;28;19924;-77
2022/07/04 09:32:23;;;;;;;;;;;19.50;99.90;;;;;;5092001;28;20393;-77
2022/07/04 09:34:55;;;;;;;;;;;19.50;99.90;;;;;;5092069;28;20345;-77
2022/07/04 09:37:20;;;;;;;;;;;19.40;99.90;;;;;;5092052;28;20316;-77
2022/07/04 09:39:46;;;;;;;;;;;19.40;99.90;;;;;;5091973;28;19930;-77
2022/07/04 09:42:12;;;;;;;;;;;19.40;99.90;;;;;;5073094;28;19939;-77
2022/07/04 09:44:45;;;;;;;;;;;19.50;99.90;;;;;;5091296;28;20027;-77
2022/07/04 09:47:22;;;;;;;;;;;19.70;99.90;;;;;;5091136;28;19935;-77
2022/07/04 09:49:58;;;;;;;;;;;19.70;99.90;;;;;;5091520;28;19931;-77
2022/07/04 09:52:23;;;;;;;;;;;19.70;99.90;;;;;;5091366;28;20007;-77
2022/07/04 09:54:49;;;;;;;;;;;20.00;99.90;;;;;;5091780;28;20014;-77
2022/07/04 09:57:21;;;;;;;;;;;20.50;99.90;;;;;;5091473;28;19928;-77
2022/07/04 09:59:46;;;;;;;;;;;20.90;99.90;;;;;;5090527;28;19947;-77
2022/07/04 10:02:13;;;;;;;;;;;21.10;99.90;;;;;;5091231;28;19924;-77
2022/07/04 10:04:45;;;;;;;;;;;21.40;99.90;;;;;;5091317;28;19932;-77
2022/07/04 10:07:11;;;;;;;0.90;0.30;;;21.90;99.90;;;;;;5090869;28;20381;-77
2022/07/04 10:09:36;;;;;;;1.17;0.30;;;22.40;99.90;;;;;;5076737;28;20400;-77
2022/07/04 10:12:02;;;;;;;1.40;0.40;;;22.50;99.90;;;;;;5088404;28;20386;-76
2022/07/04 10:14:29;;;;;;;2.28;0.35;;;22.30;99.50;;;;;;5089200;28;20406;-77
2022/07/04 10:16:55;;;;;;;1.40;0.30;;;22.20;99.40;;;;;;5089594;28;20402;-77
2022/07/04 10:19:21;;;;;;;1.60;0.50;;;22.40;99.90;;;;;;5089189;28;20399;-77
2022/07/04 10:21:47;;;;;;;1.35;0.30;;;22.70;99.90;;;;;;5088528;28;20467;-77
2022/07/04 10:24:13;;;;;;;3.37;0.37;;;23.00;98.90;;;;;;5088419;28;20406;-77
2022/07/04 10:26:38;;;;;;;0.93;0.50;;;23.30;98.30;;;;;;5089421;28;20139;-77
2022/07/04 10:29:04;;;;;;;3.33;0.80;;;23.60;96.10;;;;;;5089833;28;20052;-77
2022/07/04 10:31:33;;;;;;;2.13;0.30;;;23.70;95.70;;;;;;5090706;28;20070;-77
2022/07/04 10:34:00;;;;;;;2.75;0.30;;;24.00;95.70;;;;;;5090017;28;20051;-77
2022/07/04 10:36:29;;;;;;;;;;;24.30;95.80;;;;;;5091036;28;20040;-77
2022/07/04 10:38:55;;;;;;;;;;;24.20;94.60;;;;;;5090495;28;20378;-77
2022/07/04 10:41:23;;;;;;;;;;;23.80;93.20;;;;;;5090524;28;19927;-77
2022/07/04 10:43:48;;;;;;;;;;;23.50;94.10;;;;;;5090305;28;19920;-77
2022/07/04 10:46:19;;;;;;;;;;;23.30;94.10;;;;;;5064278;28;20008;-77
2022/07/04 10:48:52;;;;;;;;;;;23.10;95.20;;;;;;5086117;28;19924;-77
2022/07/04 10:51:33;;;;;;;;;;;22.80;94.70;;;;;;5090431;28;20067;-77
2022/07/04 10:54:00;;;;;;;;;;;22.60;94.30;;;;;;5090353;28;19971;-77
2022/07/04 10:56:25;;;;;;;;;;;22.50;95.00;;;;;;5090628;28;19920;-77
2022/07/04 10:58:51;;;;;;;;;;;22.70;94.10;;;;;;5089930;28;19920;-77
2022/07/04 11:01:18;;;;;;;;;;;23.10;94.20;;;;;;5090384;28;19927;-77
2022/07/04 11:03:45;;;;;;;;;;;23.50;93.70;;;;;;5089992;28;20092;-77
2022/07/04 11:06:29;;;;;;;;;;;23.70;93.50;;;;;;5090403;28;19920;-77
2022/07/04 11:09:16;;;;;;;2.85;0.35;;;24.00;93.60;;;;;;5077475;28;20399;-77
2022/07/04 11:11:54;;;;;;;1.40;0.30;;;24.40;93.80;;;;;;5076180;28;20139;-77
2022/07/04 11:14:36;;;;;;;2.13;0.45;;;24.70;92.90;;;;;;5089516;28;20102;-77
2022/07/04 11:17:08;;;;;;;1.75;0.35;;;24.90;91.20;;;;;;5089455;28;20048;-77
2022/07/04 11:19:35;;;;;;;1.10;0.40;;;25.10;91.60;;;;;;5089106;28;20032;-77
2022/07/04 11:22:01;;;;;;;3.22;0.40;;;25.30;92.20;;;;;;5088960;28;20147;-77
2022/07/04 11:24:27;;;;;;;;;;;25.40;90.10;;;;;;5089700;28;20414;-77
2022/07/04 11:26:53;;;;;;;;;;;25.20;90.40;;;;;;5088268;28;20002;-77
2022/07/04 11:29:18;;;;;;;;;;;25.10;90.10;;;;;;5090015;28;20366;-77
2022/07/04 11:31:46;;;;;;;;;;;24.70;88.50;;;;;;5088895;28;19935;-77
2022/07/04 11:34:12;;;;;;;;;;;24.50;90.50;;;;;;5089403;28;19927;-77
2022/07/04 11:36:40;;;;;;;3.38;0.63;;;24.60;90.00;;;;;;5062290;28;19920;-77
2022/07/04 11:39:07;;;;;;;1.23;0.40;;;24.70;89.30;;;;;;5085509;28;20047;-77
2022/07/04 11:47:15;;;;;;;;;;;25.00;85.50;;;;;;5089563;28;20044;-77
2022/07/04 11:49:42;;;;;;;;;;;24.90;83.90;;;;;;5089497;28;19920;-77
2022/07/04 11:52:07;;;;;;;;;;;24.50;83.90;;;;;;5089844;28;19927;-77
2022/07/04 11:54:33;;;;;;;;;;;24.10;84.90;;;;;;5089419;28;19920;-77
2022/07/04 11:57:12;;;;;;;;;;;24.10;85.50;;;;;;5089739;28;19932;-77
2022/07/04 11:59:38;;;;;;;;;;;24.10;85.10;;;;;;5077824;28;19926;-77
2022/07/04 12:02:11;;;;;;;;;;;24.30;84.60;;;;;;5082027;28;19920;-77
2022/07/04 12:04:38;;;;;;;;;;;24.60;81.70;;;;;;5084628;28;19920;-77
2022/07/04 12:07:14;;;;;;;;;;;24.60;82.10;;;;;;5089875;28;19927;-77
2022/07/04 12:09:40;;;;;;;;;;;24.50;79.90;;;;;;5088906;28;19949;-77
2022/07/04 12:12:06;;;;;;;;;;;24.50;81.00;;;;;;5089394;28;19924;-77
2022/07/04 12:14:32;;;;;;;;;;;24.60;79.70;;;;;;5088835;28;19960;-76
2022/07/04 12:17:12;;;;;;;1.60;0.20;;;24.70;80.90;;;;;;5088934;28;20293;-77
2022/07/04 12:19:37;;;;;;;3.03;0.20;;;25.00;79.20;;;;;;5087461;28;21080;-77
2022/07/04 12:22:03;;;;;;;2.53;0.50;;;25.20;79.40;;;;;;5069259;28;20418;-76
2022/07/04 12:24:40;;;;;;;1.47;0.30;;;25.60;78.70;;;;;;5087427;28;20398;-77
2022/07/04 12:27:06;;;;;;;4.00;0.40;;;25.80;78.60;;;;;;5088759;28;20052;-76
2022/07/04 12:29:31;;;;;;;4.95;0.30;;;26.10;76.20;;;;;;5088606;28;20044;-77
2022/07/04 12:31:57;;;;;;;1.58;0.20;;;26.20;73.40;;;;;;5088576;28;20517;-77
2022/07/04 12:34:23;;;;;;;3.00;0.20;;;26.20;71.50;;;;;;5088957;28;20391;-77
2022/07/04 12:36:56;;;;;;;0.55;0.10;;;26.20;70.80;;;;;;5088863;28;20547;-76
2022/07/04 12:39:31;;;;;;;;;;;26.10;70.60;;;;;;5076403;28;20134;-77
2022/07/04 12:42:04;;;;;;;1.02;0.20;;;26.00;71.70;;;;;;5088423;28;19920;-76
2022/07/04 12:44:30;;;;;;;1.13;0.20;;;26.00;69.50;;;;;;5088588;28;20075;-77
2022/07/04 12:46:56;;;;;;;1.27;0.20;;;25.90;69.00;;;;;;5089367;28;20477;-76
2022/07/04 12:49:23;;;;;;;2.10;0.10;;;25.80;67.40;;;;;;5092415;28;20048;-76
2022/07/04 12:51:49;;;;;;;3.13;0.22;;;25.80;67.10;;;;;;5091737;28;20051;-77
2022/07/04 12:54:15;;;;;;;2.70;0.47;;;25.80;67.70;;;;;;5091037;28;20390;-77
2022/07/04 12:56:43;;;;;;;0.75;0.28;;;25.80;67.80;;;;;;5092107;28;20071;-76
2022/07/04 12:59:10;;;;;;;4.03;0.35;;;26.00;67.90;;;;;;5092364;28;20051;-76
2022/07/04 13:01:37;;;;;;;2.15;0.30;;;26.30;67.50;;;;;;5091900;28;20040;-76
2022/07/04 13:04:03;;;;;;;1.30;0.20;;;26.60;66.80;;;;;;5092158;28;20497;-76
2022/07/04 13:06:29;;;;;;;;;;;26.70;67.00;;;;;;5092124;28;20111;-77
2022/07/04 13:08:56;;;;;;;;;;;26.60;64.70;;;;;;5091821;28;20060;-76
2022/07/04 13:14:05;;;;;;;0.40;0.10;;;26.20;63.00;;;;;;5092052;28;19920;-76
2022/07/04 13:16:31;;;;;;;2.50;0.30;;;26.20;64.90;;;;;;5089884;28;20483;-77
2022/07/04 13:18:57;;;;;;;3.10;0.45;;;26.00;65.50;;;;;;5090553;28;20776;-76
2022/07/04 13:21:23;;;;;;;3.53;0.30;;;26.00;66.80;;;;;;5091743;28;20047;-76
2022/07/04 13:23:49;;;;;;;;;;;26.30;65.00;;;;;;5073944;28;20052;-76
2022/07/04 13:26:14;;;;;;;;;;;26.50;66.10;;;;;;5091633;28;19943;-76
2022/07/04 13:28:40;;;;;;;;;;;26.30;64.10;;;;;;5091865;28;20386;-77
2022/07/04 13:31:06;;;;;;;;;;;26.10;64.50;;;;;;5091651;28;19931;-77
2022/07/04 13:33:31;;;;;;;;;;;25.80;64.40;;;;;;5092036;28;19920;-76
2022/07/04 13:35:57;;;;;;;;;;;25.50;64.50;;;;;;5091428;28;19920;-75
2022/07/04 13:38:23;;;;;;;;;;;25.50;65.60;;;;;;5091378;28;19919;-77
2022/07/04 13:40:48;;;;;;;;;;;25.60;65.00;;;;;;5091895;28;20073;-76
2022/07/04 13:43:14;;;;;;;;;;;25.60;63.40;;;;;;5079934;28;20013;-76
2022/07/04 13:45:40;;;;;;;;;;;25.70;63.90;;;;;;5090482;28;20061;-76
2022/07/04 13:48:06;;;;;;;;;;;25.70;62.40;;;;;;5091368;28;19927;-76
2022/07/04 13:50:32;;;;;;;;;;;25.80;62.80;;;;;;5091697;28;19920;-77
2022/07/04 13:52:57;;;;;;;;;;;25.70;64.00;;;;;;5091599;28;19920;-77
2022/07/04 13:55:23;;;;;;;;;;;25.90;63.80;;;;;;5091624;28;19920;-76
2022/07/04 13:57:49;;;;;;;1.58;0.30;;;26.20;62.50;;;;;;5089882;28;19920;-76
2022/07/04 14:00:15;;;;;;;2.47;0.10;;;26.50;62.20;;;;;;5090071;28;20390;-76
2022/07/04 14:02:41;;;;;;;0.80;0.20;;;26.60;59.70;;;;;;5089565;28;20394;-76
2022/07/04 14:05:07;;;;;;;2.40;0.20;;;26.80;59.00;;;;;;5089697;28;20390;-76
2022/07/04 14:07:35;;;;;;;3.40;0.20;;;26.90;58.30;;;;;;5090276;28;20525;-76
2022/07/04 14:10:01;;;;;;;1.10;0.10;;;27.00;57.80;;;;;;5090670;28;20052;-76
2022/07/04 14:12:27;;;;;;;1.85;0.30;;;27.30;59.20;;;;;;5090853;28;20091;-76
2022/07/04 14:14:52;;;;;;;;;;;27.40;57.80;;;;;;5090485;28;20040;-77
2022/07/04 14:17:18;;;;;;;;;;;27.40;58.30;;;;;;5091422;28;19927;-76
2022/07/04 14:19:43;;;;;;;;;;;26.80;56.90;;;;;;5077604;28;19943;-76
2022/07/04 14:22:09;;;;;;;;;;;26.50;59.40;;;;;;5090744;28;20279;-76
2022/07/04 14:24:34;;;;;;;;;;;26.80;60.10;;;;;;5090325;28;20491;-76
2022/07/04 14:27:00;;;;;;;;;;;26.90;60.30;;;;;;5060408;28;19973;-76